Time;durP1;ratioP1;P1;durP2;ratioP2;P2;SDS_P1;SDS_P2;PMS_P1;PMS_P2;Temp;Humidity;BMP_temperature;BMP_pressure;BME280_temperature;BME280_humidity;BME280_pressure;Samples;Min_cycle;Max_cycle;Signal;HPM_P1;HPM_P2
2023/02/25 00:01:23;;;;;;;17.73;3.80;;;6.60;99.90;;;;;;5045127;27;20021;-74
2023/02/25 00:03:54;;;;;;;22.67;3.80;;;6.60;99.90;;;;;;5043988;27;20101;-74
2023/02/25 00:06:20;;;;;;;13.38;3.38;;;6.60;99.90;;;;;;5042901;27;20120;-75
2023/02/25 00:08:47;;;;;;;22.85;3.38;;;6.60;99.90;;;;;;5045794;27;20023;-75
2023/02/25 00:11:14;;;;;;;10.38;2.47;;;6.60;99.90;;;;;;5041729;27;20064;-75
2023/02/25 00:13:41;;;;;;;15.30;3.45;;;6.60;99.90;;;;;;5041545;27;20029;-75
2023/02/25 00:16:08;;;;;;;17.38;2.95;;;6.60;99.90;;;;;;5043026;27;20013;-75
2023/02/25 00:18:34;;;;;;;17.00;2.65;;;6.60;99.90;;;;;;5042859;27;22514;-75
2023/02/25 00:21:03;;;;;;;14.80;2.78;;;6.60;99.90;;;;;;5042966;27;20028;-75
2023/02/25 00:23:29;;;;;;;11.02;2.30;;;6.60;99.90;;;;;;5044107;27;20081;-74
2023/02/25 00:26:04;;;;;;;16.13;3.05;;;6.60;99.90;;;;;;5038222;27;20056;-74
2023/02/25 00:28:30;;;;;;;13.05;2.42;;;6.60;99.90;;;;;;5044431;27;20120;-73
2023/02/25 00:30:55;;;;;;;13.27;2.85;;;6.70;99.90;;;;;;5044379;27;20108;-74
2023/02/25 00:33:21;;;;;;;13.82;2.67;;;6.70;99.90;;;;;;5043753;27;20085;-74
2023/02/25 00:35:49;;;;;;;11.55;2.33;;;6.70;99.90;;;;;;5045043;27;20538;-74
2023/02/25 00:38:15;;;;;;;13.93;2.15;;;6.50;99.90;;;;;;5040899;27;20659;-74
2023/02/25 00:40:41;;;;;;;9.77;3.08;;;6.60;99.90;;;;;;5042335;27;20029;-74
2023/02/25 00:43:07;;;;;;;15.82;2.90;;;6.50;99.90;;;;;;5042997;27;20541;-74
2023/02/25 00:45:33;;;;;;;11.48;2.03;;;6.50;99.90;;;;;;5041545;27;20029;-75
2023/02/25 00:47:59;;;;;;;10.60;2.15;;;6.50;99.90;;;;;;5048578;27;20028;-74
2023/02/25 00:50:25;;;;;;;15.13;2.78;;;6.60;99.90;;;;;;5042111;28;20030;-74
2023/02/25 00:52:51;;;;;;;14.60;3.05;;;6.50;99.90;;;;;;5039747;28;20059;-74
2023/02/25 00:55:17;;;;;;;15.35;3.22;;;6.50;99.90;;;;;;5041101;28;20031;-74
2023/02/25 00:57:43;;;;;;;17.60;2.65;;;6.50;99.90;;;;;;5045749;28;20112;-74
2023/02/25 01:00:14;;;;;;;12.32;2.40;;;6.50;99.90;;;;;;5046916;28;20013;-73
2023/02/25 01:02:41;;;;;;;17.73;2.50;;;6.40;99.90;;;;;;5043255;28;20025;-74
2023/02/25 01:05:08;;;;;;;7.55;1.70;;;6.40;99.90;;;;;;5045013;28;20362;-74
2023/02/25 01:07:33;;;;;;;8.40;2.45;;;6.40;99.90;;;;;;5047320;28;20024;-74
2023/02/25 01:09:59;;;;;;;17.83;2.53;;;6.40;99.90;;;;;;5049363;28;20025;-74
2023/02/25 01:12:24;;;;;;;10.23;1.88;;;6.40;99.90;;;;;;5050190;28;20492;-74
2023/02/25 01:14:50;;;;;;;13.73;1.88;;;6.30;99.90;;;;;;5050563;27;20021;-75
2023/02/25 01:17:16;;;;;;;12.73;2.28;;;6.30;99.90;;;;;;5045145;28;20031;-75
2023/02/25 01:19:42;;;;;;;14.05;2.28;;;6.30;99.90;;;;;;5050242;28;20537;-74
2023/02/25 01:22:08;;;;;;;14.48;3.00;;;6.30;99.90;;;;;;5047230;28;20162;-74
2023/02/25 01:24:33;;;;;;;8.88;2.47;;;6.20;99.90;;;;;;5046100;28;20046;-74
2023/02/25 01:27:02;;;;;;;17.15;2.60;;;6.20;99.90;;;;;;5051426;28;20504;-74
2023/02/25 01:29:32;;;;;;;10.77;2.50;;;6.20;99.90;;;;;;5038835;28;20043;-74
2023/02/25 01:32:01;;;;;;;14.98;2.42;;;6.20;99.90;;;;;;5045882;28;20116;-74
2023/02/25 01:34:27;;;;;;;19.27;2.97;;;6.20;99.90;;;;;;5044962;28;20037;-75
2023/02/25 01:36:53;;;;;;;10.60;2.22;;;6.20;99.90;;;;;;5048562;28;20017;-75
2023/02/25 01:39:21;;;;;;;10.05;2.47;;;6.10;99.90;;;;;;5047951;28;20040;-75
2023/02/25 01:41:49;;;;;;;10.50;1.83;;;6.10;99.90;;;;;;5043777;28;21056;-75
2023/02/25 01:44:18;;;;;;;15.23;2.45;;;6.10;99.90;;;;;;5046025;28;20029;-74
2023/02/25 01:46:49;;;;;;;18.17;2.75;;;6.10;99.90;;;;;;5043393;28;20029;-74
2023/02/25 01:49:20;;;;;;;15.43;2.83;;;6.00;99.90;;;;;;5041921;28;20086;-74
2023/02/25 01:51:50;;;;;;;12.82;2.67;;;6.00;99.90;;;;;;5047607;28;20045;-74
2023/02/25 01:54:18;;;;;;;14.77;2.30;;;6.00;99.90;;;;;;5043064;28;20013;-74
2023/02/25 01:56:49;;;;;;;14.02;2.33;;;6.00;99.90;;;;;;5043975;28;20384;-73
2023/02/25 01:59:17;;;;;;;16.48;3.05;;;6.00;99.90;;;;;;5041239;28;20086;-74
2023/02/25 02:01:43;;;;;;;14.85;2.28;;;6.00;99.90;;;;;;5040387;28;20478;-74
2023/02/25 02:04:12;;;;;;;16.27;2.80;;;5.90;99.90;;;;;;5041480;28;20062;-74
2023/02/25 02:06:40;;;;;;;11.32;2.80;;;6.00;99.90;;;;;;5044863;28;20065;-74
2023/02/25 02:09:10;;;;;;;10.73;2.15;;;6.00;99.90;;;;;;5048026;28;20033;-75
2023/02/25 02:11:36;;;;;;;12.90;2.78;;;6.00;99.90;;;;;;5049555;28;20017;-74
2023/02/25 02:14:03;;;;;;;13.77;2.58;;;6.00;99.90;;;;;;5046928;28;20137;-74
2023/02/25 02:17:00;;;;;;;16.42;2.25;;;6.00;99.90;;;;;;5043720;28;20081;-74
2023/02/25 02:19:58;;;;;;;14.02;2.28;;;6.00;99.90;;;;;;5047504;28;20063;-74
2023/02/25 02:22:36;;;;;;;10.88;2.22;;;6.10;99.90;;;;;;5049087;28;20117;-75
2023/02/25 02:25:26;;;;;;;12.50;2.63;;;6.10;99.90;;;;;;5049038;28;20028;-75
2023/02/25 02:28:07;;;;;;;16.17;2.85;;;6.10;99.90;;;;;;5042890;28;20027;-74
2023/02/25 02:30:47;;;;;;;16.33;3.03;;;6.10;99.90;;;;;;5046031;28;20063;-74
2023/02/25 02:33:42;;;;;;;11.57;2.50;;;6.10;99.90;;;;;;5035888;28;20086;-74
2023/02/25 02:36:18;;;;;;;15.68;3.08;;;6.10;99.90;;;;;;5040557;28;20061;-74
2023/02/25 02:39:05;;;;;;;21.10;2.40;;;6.00;99.90;;;;;;5043375;28;20025;-74
2023/02/25 02:41:45;;;;;;;14.30;2.92;;;6.00;99.90;;;;;;5037839;28;20032;-73
2023/02/25 02:44:43;;;;;;;21.30;3.53;;;6.00;99.90;;;;;;5039868;28;20024;-73
2023/02/25 02:47:17;;;;;;;12.60;2.40;;;6.00;99.90;;;;;;5051480;28;20073;-73
2023/02/25 02:49:48;;;;;;;19.50;3.08;;;6.00;99.90;;;;;;5042793;28;20119;-74
2023/02/25 02:52:21;;;;;;;16.95;3.15;;;6.00;99.90;;;;;;5046709;28;20097;-73
2023/02/25 02:55:05;;;;;;;20.83;3.58;;;6.00;99.90;;;;;;5048336;28;20037;-74
2023/02/25 02:57:34;;;;;;;16.55;3.65;;;6.00;99.90;;;;;;5047893;28;20040;-74
2023/02/25 03:00:16;;;;;;;20.88;3.67;;;6.00;99.90;;;;;;5046845;28;20037;-74
2023/02/25 03:02:49;;;;;;;16.50;2.88;;;5.90;99.90;;;;;;5040978;28;20032;-74
2023/02/25 03:05:17;;;;;;;16.55;2.95;;;5.90;99.90;;;;;;5039739;28;20085;-74
2023/02/25 03:07:51;;;;;;;12.10;2.67;;;5.90;99.90;;;;;;5047145;28;20376;-74
2023/02/25 03:10:20;;;;;;;21.75;2.80;;;5.90;99.90;;;;;;5045856;28;20025;-74
2023/02/25 03:12:46;;;;;;;16.00;3.03;;;5.90;99.90;;;;;;5041500;28;20081;-74
2023/02/25 03:15:13;;;;;;;15.23;2.90;;;5.90;99.90;;;;;;5040543;28;20119;-74
2023/02/25 03:17:43;;;;;;;17.48;3.33;;;5.90;99.90;;;;;;5047485;28;20582;-74
2023/02/25 03:20:17;;;;;;;20.13;2.55;;;5.90;99.90;;;;;;5043151;28;20149;-74
2023/02/25 03:22:47;;;;;;;10.60;2.63;;;5.90;99.90;;;;;;5040270;28;20034;-73
2023/02/25 03:25:28;;;;;;;22.52;3.05;;;5.80;99.90;;;;;;5043988;28;20032;-74
2023/02/25 03:28:02;;;;;;;10.75;2.88;;;5.90;99.90;;;;;;5041888;28;20101;-74
2023/02/25 03:30:34;;;;;;;22.90;3.58;;;5.90;99.90;;;;;;5047941;28;20029;-73
2023/02/25 03:33:13;;;;;;;15.27;3.15;;;5.90;99.90;;;;;;5046758;28;20033;-74
2023/02/25 03:35:39;;;;;;;18.42;3.25;;;5.80;99.90;;;;;;5048123;28;20108;-74
2023/02/25 03:38:10;;;;;;;13.68;2.80;;;5.80;99.90;;;;;;5046416;28;20026;-73
2023/02/25 03:40:39;;;;;;;16.67;3.13;;;5.80;99.90;;;;;;5046138;28;20029;-74
2023/02/25 03:43:16;;;;;;;16.95;2.75;;;5.80;99.90;;;;;;5042457;28;20369;-73
2023/02/25 03:45:43;;;;;;;22.98;4.18;;;5.80;99.90;;;;;;5042672;27;20029;-74
2023/02/25 03:48:11;;;;;;;23.05;3.47;;;5.80;99.90;;;;;;5040982;28;20354;-74
2023/02/25 03:50:52;;;;;;;22.55;3.60;;;5.80;99.90;;;;;;5047295;28;20035;-73
2023/02/25 03:53:18;;;;;;;14.93;2.60;;;5.90;99.90;;;;;;5042383;28;20064;-73
2023/02/25 03:55:45;;;;;;;18.73;3.53;;;5.90;99.90;;;;;;5046521;28;20096;-73
2023/02/25 03:58:11;;;;;;;12.35;2.97;;;5.90;99.90;;;;;;5046623;28;20028;-73
2023/02/25 04:00:39;;;;;;;21.05;3.10;;;5.90;99.90;;;;;;5046481;28;20033;-73
2023/02/25 04:03:05;;;;;;;15.63;2.92;;;5.90;99.90;;;;;;5042403;28;20021;-73
2023/02/25 04:05:31;;;;;;;16.17;2.85;;;5.90;99.90;;;;;;5048522;28;20125;-73
2023/02/25 04:07:58;;;;;;;18.95;3.25;;;5.90;99.90;;;;;;5046964;28;20022;-74
2023/02/25 04:10:24;;;;;;;17.70;2.75;;;6.00;99.90;;;;;;5048218;28;20077;-74
2023/02/25 04:12:50;;;;;;;21.85;3.97;;;6.00;99.90;;;;;;5049321;27;20044;-74
2023/02/25 04:15:16;;;;;;;19.73;2.75;;;6.00;99.90;;;;;;5046072;28;20058;-74
2023/02/25 04:17:46;;;;;;;23.63;3.15;;;6.00;99.90;;;;;;5050469;28;20025;-74
2023/02/25 04:20:14;;;;;;;14.98;2.72;;;6.00;99.90;;;;;;5043079;28;20025;-74
2023/02/25 04:22:40;;;;;;;18.48;2.80;;;6.00;99.90;;;;;;5043614;28;20026;-74
2023/02/25 04:25:06;;;;;;;19.15;3.17;;;6.00;99.90;;;;;;5052260;28;20033;-74
2023/02/25 04:27:32;;;;;;;15.93;3.28;;;6.00;99.90;;;;;;5047130;28;20027;-74
2023/02/25 04:29:58;;;;;;;17.00;3.05;;;6.00;99.90;;;;;;5040637;28;20026;-73
2023/02/25 04:32:24;;;;;;;19.70;2.97;;;6.00;99.90;;;;;;5045692;28;20034;-74
2023/02/25 04:34:50;;;;;;;19.80;3.13;;;5.90;99.90;;;;;;5040506;28;20076;-74
2023/02/25 04:37:16;;;;;;;17.95;3.00;;;5.90;99.90;;;;;;5049359;28;20025;-73
2023/02/25 04:39:42;;;;;;;22.73;2.97;;;6.00;99.90;;;;;;5045829;28;20022;-73
2023/02/25 04:42:07;;;;;;;14.13;2.75;;;5.90;99.90;;;;;;5046384;28;20026;-73
2023/02/25 04:44:33;;;;;;;19.58;3.33;;;5.90;99.90;;;;;;5047597;28;20160;-73
2023/02/25 04:46:58;;;;;;;20.10;2.88;;;5.90;99.90;;;;;;5046486;28;20025;-74
2023/02/25 04:49:24;;;;;;;21.63;3.63;;;5.80;99.90;;;;;;5050318;28;20025;-73
2023/02/25 04:51:50;;;;;;;22.13;3.40;;;5.80;99.90;;;;;;5048742;28;20034;-74
2023/02/25 04:54:19;;;;;;;18.80;3.50;;;5.80;99.90;;;;;;5046375;28;20081;-74
2023/02/25 04:56:46;;;;;;;22.63;4.18;;;5.80;99.90;;;;;;5042032;28;20057;-74
2023/02/25 04:59:12;;;;;;;29.58;4.47;;;5.70;99.90;;;;;;5044426;28;20041;-74
2023/02/25 05:01:38;;;;;;;17.33;2.83;;;5.70;99.90;;;;;;5050739;28;20017;-74
2023/02/25 05:04:04;;;;;;;17.33;3.08;;;5.60;99.90;;;;;;5043044;28;20037;-74
2023/02/25 05:06:29;;;;;;;19.52;3.25;;;5.70;99.90;;;;;;5045456;28;20021;-74
2023/02/25 05:08:56;;;;;;;23.42;3.33;;;5.70;99.90;;;;;;5052727;28;20495;-74
2023/02/25 05:11:24;;;;;;;18.35;3.30;;;5.70;99.90;;;;;;5044917;28;20070;-74
2023/02/25 05:13:50;;;;;;;17.63;3.72;;;5.70;99.90;;;;;;5047564;28;20101;-74
2023/02/25 05:16:18;;;;;;;19.67;3.58;;;5.70;99.90;;;;;;5035545;28;21376;-73
2023/02/25 05:18:45;;;;;;;22.25;4.82;;;5.70;99.90;;;;;;5043944;28;20030;-74
2023/02/25 05:21:13;;;;;;;18.38;3.25;;;5.70;99.90;;;;;;5044812;28;20048;-74
2023/02/25 05:23:40;;;;;;;16.48;3.47;;;5.80;99.90;;;;;;5041890;28;20029;-74
2023/02/25 05:26:07;;;;;;;21.67;3.13;;;5.80;99.90;;;;;;5040080;28;20025;-74
2023/02/25 05:28:33;;;;;;;16.33;2.95;;;5.80;99.90;;;;;;5049427;28;20473;-74
2023/02/25 05:31:02;;;;;;;25.73;3.85;;;5.80;99.90;;;;;;5042299;28;20491;-74
2023/02/25 05:33:28;;;;;;;22.30;3.28;;;5.80;99.90;;;;;;5046053;28;20058;-74
2023/02/25 05:35:54;;;;;;;26.92;3.58;;;5.70;99.90;;;;;;5048355;28;20017;-75
2023/02/25 05:38:19;;;;;;;20.50;3.50;;;5.70;99.90;;;;;;5041329;28;20032;-74
2023/02/25 05:40:45;;;;;;;17.30;2.90;;;5.70;99.90;;;;;;5044311;28;20474;-74
2023/02/25 05:43:10;;;;;;;20.95;3.05;;;5.70;99.90;;;;;;5038120;28;20057;-74
2023/02/25 05:45:36;;;;;;;21.27;3.70;;;5.70;99.90;;;;;;5048190;28;20018;-74
2023/02/25 05:48:02;;;;;;;15.70;3.10;;;5.70;99.90;;;;;;5035455;28;20032;-74
2023/02/25 05:50:27;;;;;;;20.17;3.30;;;5.60;99.90;;;;;;5044057;28;20100;-74
2023/02/25 05:52:53;;;;;;;18.17;2.38;;;5.60;99.90;;;;;;5044407;28;20062;-74
2023/02/25 05:55:19;;;;;;;22.83;3.40;;;5.60;99.90;;;;;;5044558;28;20502;-74
2023/02/25 05:57:44;;;;;;;15.90;2.95;;;5.60;99.90;;;;;;5046625;28;20024;-73
2023/02/25 06:00:13;;;;;;;20.42;3.33;;;5.60;99.90;;;;;;5041043;27;20056;-74
2023/02/25 06:02:43;;;;;;;15.70;3.00;;;5.60;99.90;;;;;;5047475;28;20036;-73
2023/02/25 06:05:08;;;;;;;22.63;3.45;;;5.60;99.90;;;;;;5040646;28;20141;-73
2023/02/25 06:07:34;;;;;;;20.88;3.38;;;5.50;99.90;;;;;;5045966;28;20136;-73
2023/02/25 06:10:00;;;;;;;12.45;2.78;;;5.50;99.90;;;;;;5040455;28;20464;-73
2023/02/25 06:12:31;;;;;;;15.98;2.53;;;5.50;99.90;;;;;;5044337;28;20484;-74
2023/02/25 06:14:56;;;;;;;20.23;3.92;;;5.50;99.90;;;;;;5047231;28;20076;-73
2023/02/25 06:17:25;;;;;;;18.63;2.78;;;5.50;99.90;;;;;;5038794;28;20500;-74
2023/02/25 06:19:52;;;;;;;21.67;2.97;;;5.50;99.90;;;;;;5040938;28;20048;-73
2023/02/25 06:22:21;;;;;;;20.30;2.17;;;5.50;99.90;;;;;;5039221;28;20040;-73
2023/02/25 06:24:47;;;;;;;20.67;3.95;;;5.40;99.90;;;;;;5041820;28;20028;-73
2023/02/25 06:27:13;;;;;;;15.63;2.65;;;5.40;99.90;;;;;;5036012;28;20025;-73
2023/02/25 06:29:40;;;;;;;16.30;2.78;;;5.40;99.90;;;;;;5041047;28;20048;-73
2023/02/25 06:32:10;;;;;;;21.08;3.47;;;5.30;99.90;;;;;;5041787;28;20032;-73
2023/02/25 06:34:35;;;;;;;14.98;2.92;;;5.40;99.90;;;;;;5038058;28;20480;-74
2023/02/25 06:37:01;;;;;;;25.83;4.00;;;5.40;99.90;;;;;;5036324;28;20048;-73
2023/02/25 06:39:26;;;;;;;31.95;3.95;;;5.30;99.90;;;;;;5040468;28;20039;-73
2023/02/25 06:41:52;;;;;;;16.48;3.08;;;5.30;99.90;;;;;;5035544;28;20147;-73
2023/02/25 06:44:18;;;;;;;24.50;3.78;;;5.30;99.90;;;;;;5044741;28;20036;-73
2023/02/25 06:46:43;;;;;;;16.75;2.90;;;5.20;99.90;;;;;;5036919;28;20026;-73
2023/02/25 06:49:10;;;;;;;15.98;3.28;;;5.20;99.90;;;;;;5041219;28;20029;-74
2023/02/25 06:51:35;;;;;;;13.82;3.05;;;5.20;99.90;;;;;;5034697;28;20037;-74
2023/02/25 06:54:02;;;;;;;24.02;3.65;;;5.30;99.90;;;;;;5035524;28;20029;-73
2023/02/25 06:56:29;;;;;;;15.88;2.55;;;5.30;99.90;;;;;;5037041;28;20065;-74
2023/02/25 06:58:58;;;;;;;17.23;2.70;;;5.30;99.90;;;;;;5041150;28;20426;-74
2023/02/25 07:01:24;;;;;;;18.95;2.40;;;5.30;99.90;;;;;;5033454;28;20381;-74
2023/02/25 07:03:50;;;;;;;13.57;2.55;;;5.20;99.90;;;;;;5037015;28;20116;-74
2023/02/25 07:06:17;;;;;;;19.75;3.50;;;5.20;99.90;;;;;;5042181;28;20480;-74
2023/02/25 07:08:44;;;;;;;13.32;2.42;;;5.20;99.90;;;;;;5038552;28;20096;-74
2023/02/25 07:11:20;;;;;;;19.65;3.33;;;5.20;99.90;;;;;;5042880;28;20395;-73
2023/02/25 07:13:47;;;;;;;20.90;2.47;;;5.20;99.90;;;;;;5041881;28;20033;-74
2023/02/25 07:16:14;;;;;;;18.48;2.78;;;5.20;99.90;;;;;;5039894;28;20029;-75
2023/02/25 07:18:40;;;;;;;13.32;2.60;;;5.30;99.90;;;;;;5037959;28;20026;-75
2023/02/25 07:21:06;;;;;;;22.63;3.85;;;5.20;99.90;;;;;;5037448;28;20180;-75
2023/02/25 07:23:32;;;;;;;16.70;2.88;;;5.20;99.90;;;;;;5046548;28;20056;-75
2023/02/25 07:26:02;;;;;;;25.95;3.03;;;5.20;99.90;;;;;;5041844;28;20079;-75
2023/02/25 07:28:28;;;;;;;16.95;2.80;;;5.30;99.90;;;;;;5041456;28;20025;-71
2023/02/25 07:30:53;;;;;;;16.25;2.28;;;5.30;99.90;;;;;;5059046;28;20029;-74
2023/02/25 07:33:19;;;;;;;13.45;3.17;;;5.20;99.90;;;;;;5050858;28;20061;-72
2023/02/25 07:35:45;;;;;;;17.00;3.10;;;5.30;99.90;;;;;;5050772;28;20029;-71
2023/02/25 07:38:11;;;;;;;16.52;2.90;;;5.40;99.90;;;;;;5047165;28;20533;-74
2023/02/25 07:40:40;;;;;;;15.57;2.88;;;5.40;99.90;;;;;;5041881;28;20053;-74
2023/02/25 07:43:06;;;;;;;20.05;4.00;;;5.40;99.90;;;;;;5045859;28;20089;-74
2023/02/25 07:45:31;;;;;;;20.17;2.97;;;5.40;99.90;;;;;;5046477;28;20484;-75
2023/02/25 07:47:57;;;;;;;17.10;2.63;;;5.50;99.90;;;;;;5040658;28;20034;-73
2023/02/25 07:50:22;;;;;;;16.15;3.00;;;5.50;99.90;;;;;;5041115;28;20419;-73
2023/02/25 07:52:48;;;;;;;21.90;3.38;;;5.50;99.90;;;;;;5037315;28;20041;-72
2023/02/25 07:55:14;;;;;;;14.98;3.28;;;5.60;99.90;;;;;;5041264;28;20021;-74
2023/02/25 07:57:40;;;;;;;20.98;3.33;;;5.50;99.90;;;;;;5041017;28;20033;-73
2023/02/25 08:00:09;;;;;;;22.27;3.65;;;5.60;99.90;;;;;;5037015;28;20013;-71
2023/02/25 08:02:35;;;;;;;23.48;4.10;;;5.60;99.90;;;;;;5045809;28;20025;-71
2023/02/25 08:05:01;;;;;;;20.02;3.30;;;5.60;99.90;;;;;;5043500;28;20029;-74
2023/02/25 08:07:29;;;;;;;21.58;3.30;;;5.60;99.90;;;;;;5042436;28;20166;-72
2023/02/25 08:09:55;;;;;;;16.75;3.40;;;5.70;99.90;;;;;;5040858;28;20534;-74
2023/02/25 08:12:20;;;;;;;15.88;2.80;;;5.70;99.90;;;;;;5042152;28;20037;-74
2023/02/25 08:14:46;;;;;;;22.95;3.58;;;5.70;99.90;;;;;;5042120;28;20025;-71
2023/02/25 08:17:12;;;;;;;19.10;3.60;;;5.80;99.90;;;;;;5045884;28;20029;-74
2023/02/25 08:19:38;;;;;;;18.00;2.83;;;5.80;99.90;;;;;;5038194;27;20396;-72
2023/02/25 08:22:04;;;;;;;20.17;3.47;;;5.80;99.90;;;;;;5043608;28;20483;-72
2023/02/25 08:24:31;;;;;;;21.33;3.75;;;5.80;99.90;;;;;;5041320;28;20066;-71
2023/02/25 08:26:56;;;;;;;21.52;3.55;;;5.80;99.90;;;;;;5043454;28;20064;-71
2023/02/25 08:29:22;;;;;;;18.00;3.58;;;5.80;99.90;;;;;;5043484;28;20429;-74
2023/02/25 08:31:51;;;;;;;26.90;3.42;;;5.90;99.90;;;;;;5037481;28;20044;-74
2023/02/25 08:34:17;;;;;;;16.05;3.45;;;6.10;99.90;;;;;;5033034;28;20029;-71
2023/02/25 08:36:43;;;;;;;19.50;3.53;;;6.30;99.90;;;;;;5045608;28;20053;-75
2023/02/25 08:39:09;;;;;;;18.02;3.30;;;6.40;99.90;;;;;;5037319;28;20057;-70
2023/02/25 08:41:36;;;;;;;15.07;3.42;;;6.40;99.90;;;;;;5039657;28;20026;-71
2023/02/25 08:44:02;;;;;;;17.92;3.08;;;6.40;99.90;;;;;;5043166;28;20429;-71
2023/02/25 08:46:30;;;;;;;18.88;3.78;;;6.40;99.90;;;;;;5040656;28;20013;-72
2023/02/25 08:48:56;;;;;;;19.13;4.30;;;6.40;99.90;;;;;;5033627;28;20064;-72
2023/02/25 08:51:24;;;;;;;21.05;3.33;;;6.50;99.90;;;;;;5041402;28;20048;-75
2023/02/25 08:53:49;;;;;;;18.70;3.28;;;6.40;99.90;;;;;;5045929;28;20460;-70
2023/02/25 08:56:15;;;;;;;16.08;3.17;;;6.50;99.90;;;;;;5041710;28;20104;-71
2023/02/25 08:58:42;;;;;;;17.27;3.65;;;6.50;99.90;;;;;;5043667;28;20663;-74
2023/02/25 09:01:13;;;;;;;19.77;3.20;;;6.60;99.90;;;;;;5038946;28;20028;-73
2023/02/25 09:03:50;;;;;;;20.08;3.95;;;6.60;99.90;;;;;;5036257;28;20489;-71
2023/02/25 09:06:16;;;;;;;13.45;2.63;;;6.70;99.90;;;;;;5035145;28;20062;-72
2023/02/25 09:08:42;;;;;;;23.05;3.53;;;6.80;99.90;;;;;;5035885;28;20033;-73
2023/02/25 09:11:08;;;;;;;19.13;4.28;;;6.90;99.90;;;;;;5045489;28;20073;-72
2023/02/25 09:13:33;;;;;;;18.17;2.90;;;7.00;99.90;;;;;;5039604;28;20056;-72
2023/02/25 09:15:59;;;;;;;21.73;4.22;;;7.10;99.90;;;;;;5042556;28;20058;-72
2023/02/25 09:18:25;;;;;;;26.15;3.67;;;7.10;99.90;;;;;;5044319;28;20472;-73
2023/02/25 09:20:51;;;;;;;18.65;3.85;;;7.10;99.90;;;;;;5041394;28;20087;-72
2023/02/25 09:23:17;;;;;;;22.88;3.70;;;7.00;99.90;;;;;;5055336;27;20238;-73
2023/02/25 09:25:44;;;;;;;23.50;3.63;;;7.10;99.90;;;;;;5036926;28;20033;-72
2023/02/25 09:28:11;;;;;;;18.13;3.70;;;7.20;99.90;;;;;;5041323;28;20029;-72
2023/02/25 09:30:37;;;;;;;21.92;3.22;;;7.30;99.90;;;;;;5043540;28;20108;-71
2023/02/25 09:33:02;;;;;;;28.58;3.88;;;7.40;99.90;;;;;;5039270;28;20153;-75
2023/02/25 09:35:28;;;;;;;24.67;3.47;;;7.40;99.90;;;;;;5040340;28;20021;-74
2023/02/25 09:37:54;;;;;;;28.38;4.43;;;7.50;99.90;;;;;;5043530;28;20040;-75
2023/02/25 09:40:22;;;;;;;22.27;3.55;;;7.50;99.90;;;;;;5036347;28;20067;-75
2023/02/25 09:43:14;;;;;;;24.25;3.88;;;7.50;99.90;;;;;;5044828;28;20032;-75
2023/02/25 09:45:45;;;;;;;26.95;3.90;;;7.60;99.90;;;;;;5034313;28;20075;-73
2023/02/25 09:48:29;;;;;;;19.43;3.70;;;7.70;99.90;;;;;;5035542;28;20405;-72
2023/02/25 09:51:17;;;;;;;22.90;3.50;;;7.60;99.90;;;;;;5040713;28;20537;-73
2023/02/25 09:53:52;;;;;;;26.17;3.50;;;7.60;99.90;;;;;;5042109;28;20041;-71
2023/02/25 09:56:21;;;;;;;21.65;3.35;;;7.60;99.90;;;;;;5038149;28;20045;-76
2023/02/25 09:58:52;;;;;;;29.38;3.35;;;7.60;99.90;;;;;;5046038;28;20078;-73
2023/02/25 10:01:38;;;;;;;17.93;3.43;;;7.70;99.90;;;;;;5036422;28;20497;-73
2023/02/25 10:04:13;;;;;;;23.05;4.07;;;7.70;99.90;;;;;;5040800;28;20361;-70
2023/02/25 10:06:44;;;;;;;23.00;3.60;;;7.80;99.90;;;;;;5038705;28;20071;-72
2023/02/25 10:09:37;;;;;;;22.83;3.75;;;7.80;99.90;;;;;;5037974;28;20044;-73
2023/02/25 10:12:12;;;;;;;;;;;7.90;99.90;;;;;;5036987;28;20505;-68
2023/02/25 10:15:05;;;;;;;19.20;3.45;;;8.20;99.90;;;;;;5041309;28;19913;-74
2023/02/25 10:17:38;;;;;;;;;;;8.30;99.90;;;;;;5036117;28;20037;-69
2023/02/25 10:20:22;;;;;;;16.67;3.03;;;8.10;99.90;;;;;;5017988;27;19916;-72
2023/02/25 10:23:23;;;;;;;20.83;3.13;;;8.10;99.90;;;;;;5041483;27;20055;-75
2023/02/25 10:26:09;;;;;;;22.38;3.45;;;8.30;99.90;;;;;;5038899;27;20020;-74
2023/02/25 10:28:39;;;;;;;17.63;2.88;;;8.50;99.90;;;;;;5038896;27;20167;-72
2023/02/25 10:31:17;;;;;;;27.17;3.42;;;8.70;99.90;;;;;;5044341;27;20108;-74
2023/02/25 10:33:45;;;;;;;17.92;3.17;;;8.70;99.90;;;;;;5037895;27;20041;-74
2023/02/25 10:36:16;;;;;;;20.42;3.63;;;8.70;99.90;;;;;;5038831;27;20030;-70
2023/02/25 10:38:45;;;;;;;12.93;2.40;;;8.70;99.90;;;;;;5038355;27;20033;-71
2023/02/25 10:41:11;;;;;;;20.58;2.95;;;8.80;99.90;;;;;;5040243;27;20032;-71
2023/02/25 10:43:37;;;;;;;15.32;3.08;;;8.80;99.90;;;;;;5043599;27;20113;-71
2023/02/25 10:46:11;;;;;;;19.08;3.53;;;8.90;99.90;;;;;;5035575;27;20096;-70
2023/02/25 10:48:38;;;;;;;12.07;2.58;;;8.80;99.90;;;;;;5037659;27;20457;-71
2023/02/25 10:51:13;;;;;;;15.27;2.45;;;8.90;99.90;;;;;;5039191;27;20191;-70
2023/02/25 10:53:59;;;;;;;16.10;2.70;;;8.90;99.90;;;;;;5040724;27;20641;-71
2023/02/25 10:56:43;;;;;;;19.27;3.50;;;8.90;99.90;;;;;;5040613;27;20021;-71
2023/02/25 10:59:27;;;;;;;11.23;2.70;;;9.00;99.90;;;;;;5041517;27;20364;-71
2023/02/25 11:01:54;;;;;;;17.88;2.88;;;8.90;99.90;;;;;;5043017;27;20049;-71
2023/02/25 11:04:27;;;;;;;19.27;3.03;;;8.80;99.90;;;;;;5042889;27;20033;-71
2023/02/25 11:06:52;;;;;;;17.30;2.53;;;8.60;99.90;;;;;;5047136;27;20491;-72
2023/02/25 11:09:18;;;;;;;11.45;2.53;;;8.30;99.90;;;;;;5042996;27;20025;-72
2023/02/25 11:12:08;;;;;;;15.57;2.50;;;8.00;99.90;;;;;;5047078;27;20032;-72
2023/02/25 11:14:36;;;;;;;12.38;2.50;;;7.90;99.90;;;;;;5044376;27;20480;-70
2023/02/25 11:17:21;;;;;;;14.68;2.30;;;7.80;99.90;;;;;;5043863;27;20032;-70
2023/02/25 11:19:49;;;;;;;17.70;2.78;;;7.80;99.90;;;;;;5042357;27;20037;-70
2023/02/25 11:22:22;;;;;;;16.70;2.60;;;7.80;99.90;;;;;;5043947;27;20374;-70
2023/02/25 11:25:02;;;;;;;14.90;2.20;;;7.80;99.90;;;;;;5050439;27;20158;-75
2023/02/25 11:27:38;;;;;;;12.25;2.03;;;7.80;99.90;;;;;;5047014;27;20024;-70
2023/02/25 11:30:12;;;;;;;16.60;2.58;;;8.00;99.90;;;;;;5045871;27;20073;-70
2023/02/25 11:32:52;;;;;;;17.52;2.53;;;8.10;99.90;;;;;;5043592;27;20037;-71
2023/02/25 11:35:28;;;;;;;9.20;2.33;;;8.20;99.90;;;;;;5046451;27;20029;-73
2023/02/25 11:37:57;;;;;;;8.05;1.50;;;8.20;99.90;;;;;;5030849;27;20452;-73
2023/02/25 11:40:29;;;;;;;11.43;1.90;;;8.20;99.90;;;;;;5047238;27;20013;-76
2023/02/25 11:43:04;;;;;;;14.05;2.55;;;8.20;99.90;;;;;;5049615;27;20112;-74
2023/02/25 11:45:53;;;;;;;14.10;3.28;;;8.20;99.90;;;;;;5046820;27;20048;-73
2023/02/25 11:48:48;;;;;;;10.90;2.30;;;8.20;99.90;;;;;;5037984;27;20097;-73
2023/02/25 11:51:32;;;;;;;8.77;2.10;;;8.30;99.90;;;;;;5039556;27;20033;-76
2023/02/25 11:54:24;;;;;;;10.65;2.10;;;8.50;99.90;;;;;;5041518;27;20069;-72
2023/02/25 11:57:14;;;;;;;8.00;2.40;;;8.40;99.90;;;;;;5017314;27;20037;-72
2023/02/25 12:00:01;;;;;;;8.65;1.75;;;8.40;99.90;;;;;;5050737;27;20127;-73
2023/02/25 12:02:33;;;;;;;10.00;1.98;;;8.40;99.90;;;;;;5037449;27;20041;-73
2023/02/25 12:05:38;;;;;;;7.75;1.83;;;8.40;99.90;;;;;;5049060;27;20456;-75
2023/02/25 12:08:20;;;;;;;5.85;1.40;;;8.30;99.90;;;;;;5040328;27;20633;-73
2023/02/25 12:11:07;;;;;;;8.02;1.42;;;8.30;99.90;;;;;;5044139;27;20513;-74
2023/02/25 12:14:10;;;;;;;9.13;1.35;;;8.30;99.90;;;;;;5043224;27;20052;-75
2023/02/25 12:17:19;;;;;;;10.10;2.03;;;8.30;99.90;;;;;;5041019;27;20037;-72
2023/02/25 12:19:51;;;;;;;7.40;1.15;;;8.30;99.90;;;;;;5043759;27;20029;-72
2023/02/25 12:22:47;;;;;;;2.33;1.00;;;8.40;99.90;;;;;;5039384;27;20028;-72
2023/02/25 12:25:32;;;;;;;6.60;1.35;;;8.40;99.90;;;;;;5045774;27;20487;-71
2023/02/25 12:28:12;;;;;;;8.73;1.02;;;8.50;99.90;;;;;;5043347;27;20033;-71
2023/02/25 12:31:00;;;;;;;5.88;1.00;;;8.60;99.90;;;;;;5047205;27;20042;-71
2023/02/25 12:33:35;;;;;;;12.93;1.13;;;8.70;99.90;;;;;;5040404;27;20065;-70
2023/02/25 12:36:26;;;;;;;6.30;1.20;;;8.90;99.90;;;;;;5041610;27;20059;-74
2023/02/25 12:39:30;;;;;;;4.97;1.65;;;9.10;99.90;;;;;;5048329;27;20040;-75
2023/02/25 12:42:23;;;;;;;7.93;1.35;;;9.30;99.90;;;;;;5045299;27;20025;-75
2023/02/25 12:44:52;;;;;;;13.98;1.70;;;9.00;99.90;;;;;;5042498;27;20048;-75
2023/02/25 12:47:29;;;;;;;8.02;1.73;;;8.60;99.90;;;;;;5039285;27;20072;-76
2023/02/25 12:50:03;;;;;;;6.68;1.50;;;8.30;99.90;;;;;;5040256;27;20025;-73
2023/02/25 12:52:50;;;;;;;8.45;1.50;;;7.80;99.90;;;;;;5044532;27;20549;-74
2023/02/25 12:55:45;;;;;;;10.00;1.40;;;7.60;99.90;;;;;;5040804;27;20068;-75
2023/02/25 12:58:45;;;;;;;6.00;1.35;;;7.50;99.90;;;;;;5044826;27;20029;-72
2023/02/25 13:01:49;;;;;;;5.20;1.10;;;7.40;99.90;;;;;;5034857;27;20025;-71
2023/02/25 13:04:17;;;;;;;12.00;1.70;;;7.60;99.90;;;;;;5043236;27;20029;-73
2023/02/25 13:07:28;;;;;;;8.05;1.27;;;7.60;99.90;;;;;;5045543;27;22513;-72
2023/02/25 13:10:02;;;;;;;7.57;1.88;;;7.80;99.90;;;;;;5060276;27;20060;-71